createdAt,value
2018-07-31T00:00:24.870Z,1012.66
2018-07-31T00:01:05.420Z,1012.65
2018-07-31T00:01:45.989Z,1012.68
2018-07-31T00:02:26.565Z,1012.66
2018-07-31T00:03:07.192Z,1012.64
2018-07-31T00:03:47.808Z,1012.63
2018-07-31T00:04:28.379Z,1012.66
2018-07-31T00:05:08.975Z,1012.6
2018-07-31T00:05:49.539Z,1012.6
2018-07-31T00:06:30.133Z,1012.66
2018-07-31T00:07:10.703Z,1012.63
2018-07-31T00:07:51.274Z,1012.62
2018-07-31T00:08:31.934Z,1012.61
2018-07-31T00:09:12.501Z,1012.59
2018-07-31T00:09:53.062Z,1012.58
2018-07-31T00:10:33.694Z,1012.57
2018-07-31T00:11:14.197Z,1012.56
2018-07-31T00:11:54.751Z,1012.54
2018-07-31T00:12:35.345Z,1012.55
2018-07-31T00:13:15.918Z,1012.54
2018-07-31T00:13:56.490Z,1012.52
2018-07-31T00:14:37.073Z,1012.54
2018-07-31T00:15:17.736Z,1012.52
2018-07-31T00:15:58.361Z,1012.52
2018-07-31T00:16:38.918Z,1012.51
2018-07-31T00:17:19.480Z,1012.53
2018-07-31T00:18:00.058Z,1012.53
2018-07-31T00:18:40.623Z,1012.53
2018-07-31T00:19:21.321Z,1012.51
2018-07-31T00:20:01.903Z,1012.55
2018-07-31T00:20:42.475Z,1012.51
2018-07-31T00:21:23.042Z,1012.51
2018-07-31T00:22:03.605Z,1012.54
2018-07-31T00:22:44.179Z,1012.54
2018-07-31T00:23:24.920Z,1012.56
2018-07-31T00:24:05.370Z,1012.52
2018-07-31T00:24:46.028Z,1012.52
2018-07-31T00:25:26.594Z,1012.54
2018-07-31T00:26:07.167Z,1012.54
2018-07-31T00:26:47.738Z,1012.56
2018-07-31T00:27:28.301Z,1012.53
2018-07-31T00:28:08.894Z,1012.59
2018-07-31T00:28:49.529Z,1012.61
2018-07-31T00:29:30.030Z,1012.57
2018-07-31T00:30:10.638Z,1012.57
2018-07-31T00:30:51.197Z,1012.6
2018-07-31T00:31:31.767Z,1012.62
2018-07-31T00:32:12.339Z,1012.63
2018-07-31T00:32:52.917Z,1012.59
2018-07-31T00:33:33.498Z,1012.6
2018-07-31T00:34:14.043Z,1012.59
2018-07-31T00:34:54.618Z,1012.56
2018-07-31T00:35:35.178Z,1012.57
2018-07-31T00:36:15.933Z,1012.54
2018-07-31T00:36:56.510Z,1012.56
2018-07-31T00:37:37.080Z,1012.52
2018-07-31T00:38:17.677Z,1012.5
2018-07-31T00:38:58.257Z,1012.55
2018-07-31T00:39:38.811Z,1012.52
2018-07-31T00:40:19.422Z,1012.52
2018-07-31T00:41:00.069Z,1012.57
2018-07-31T00:41:40.633Z,1012.55
2018-07-31T00:42:21.228Z,1012.52
2018-07-31T00:43:01.810Z,1012.54
2018-07-31T00:43:42.382Z,1012.5
2018-07-31T00:44:22.953Z,1012.54
2018-07-31T00:45:03.592Z,1012.51
2018-07-31T00:45:44.090Z,1012.54
2018-07-31T00:46:24.664Z,1012.54
2018-07-31T00:47:05.338Z,1012.49
2018-07-31T00:47:45.841Z,1012.54
2018-07-31T00:48:26.428Z,1012.49
2018-07-31T00:49:06.996Z,1012.51
2018-07-31T00:49:47.552Z,1012.51
2018-07-31T00:50:28.221Z,1012.5
2018-07-31T00:51:08.697Z,1012.5
2018-07-31T00:51:49.305Z,1012.49
2018-07-31T00:52:29.900Z,1012.45
2018-07-31T00:53:10.474Z,1012.47
2018-07-31T00:53:51.037Z,1012.44
2018-07-31T00:54:31.608Z,1012.44
2018-07-31T00:55:12.173Z,1012.46
2018-07-31T00:55:52.763Z,1012.42
2018-07-31T00:56:33.333Z,1012.46
2018-07-31T00:57:13.904Z,1012.42
2018-07-31T00:57:54.555Z,1012.48
2018-07-31T00:58:35.125Z,1012.45
2018-07-31T00:59:15.696Z,1012.43
2018-07-31T00:59:56.265Z,1012.4
2018-07-31T01:00:36.833Z,1012.43
2018-07-31T01:01:17.399Z,1012.37
2018-07-31T01:01:57.969Z,1012.41
2018-07-31T01:02:38.543Z,1012.4
2018-07-31T01:03:19.109Z,1012.41
2018-07-31T01:03:59.715Z,1012.38
2018-07-31T01:04:40.259Z,1012.43
2018-07-31T01:05:20.829Z,1012.4
2018-07-31T01:06:01.392Z,1012.38
2018-07-31T01:06:41.962Z,1012.42
2018-07-31T01:07:22.524Z,1012.38
2018-07-31T01:08:03.093Z,1012.39
2018-07-31T01:08:43.686Z,1012.39
2018-07-31T01:09:24.287Z,1012.38
2018-07-31T01:10:04.860Z,1012.42
2018-07-31T01:10:45.450Z,1012.44
2018-07-31T01:11:26.086Z,1012.41
2018-07-31T01:12:06.658Z,1012.46
2018-07-31T01:12:47.229Z,1012.39
2018-07-31T01:13:27.798Z,1012.38
2018-07-31T01:14:08.428Z,1012.41
2018-07-31T01:14:48.988Z,1012.41
2018-07-31T01:15:29.570Z,1012.38
2018-07-31T01:16:10.187Z,1012.41
2018-07-31T01:16:50.748Z,1012.42
2018-07-31T01:17:31.329Z,1012.41
2018-07-31T01:18:11.969Z,1012.41
2018-07-31T01:18:52.531Z,1012.38
2018-07-31T01:19:33.110Z,1012.37
2018-07-31T01:20:13.682Z,1012.38
2018-07-31T01:20:54.249Z,1012.39
2018-07-31T01:21:34.824Z,1012.33
2018-07-31T01:22:15.393Z,1012.37
2018-07-31T01:22:55.996Z,1012.36
2018-07-31T01:23:36.644Z,1012.35
2018-07-31T01:24:17.206Z,1012.34
2018-07-31T01:24:57.813Z,1012.35
2018-07-31T01:25:38.417Z,1012.33
2018-07-31T01:26:19.042Z,1012.34
2018-07-31T01:26:59.689Z,1012.3
2018-07-31T01:27:40.291Z,1012.3
2018-07-31T01:28:20.836Z,1012.32
2018-07-31T01:29:01.484Z,1012.31
2018-07-31T01:29:42.024Z,1012.32
2018-07-31T01:30:22.610Z,1012.29
2018-07-31T01:31:03.200Z,1012.29
2018-07-31T01:31:43.777Z,1012.29
2018-07-31T01:32:24.347Z,1012.26
2018-07-31T01:33:04.948Z,1012.29
2018-07-31T01:33:45.588Z,1012.33
2018-07-31T01:34:26.070Z,1012.3
2018-07-31T01:35:06.619Z,1012.28
2018-07-31T01:35:47.274Z,1012.3
2018-07-31T01:36:27.812Z,1012.28
2018-07-31T01:37:08.386Z,1012.3
2018-07-31T01:37:48.978Z,1012.29
2018-07-31T01:38:29.560Z,1012.33
2018-07-31T01:39:10.116Z,1012.32
2018-07-31T01:39:50.677Z,1012.31
2018-07-31T01:40:31.276Z,1012.29
2018-07-31T01:41:11.786Z,1012.29
2018-07-31T01:41:52.384Z,1012.28
2018-07-31T01:42:32.963Z,1012.25
2018-07-31T01:43:13.524Z,1012.33
2018-07-31T01:43:54.079Z,1012.29
2018-07-31T01:44:34.663Z,1012.37
2018-07-31T01:45:15.236Z,1012.3
2018-07-31T01:45:55.819Z,1012.29
2018-07-31T01:46:36.365Z,1012.33
2018-07-31T01:47:16.944Z,1012.28
2018-07-31T01:47:57.491Z,1012.28
2018-07-31T01:48:38.071Z,1012.31
2018-07-31T01:49:18.639Z,1012.26
2018-07-31T01:49:59.212Z,1012.29
2018-07-31T01:50:39.788Z,1012.29
2018-07-31T01:51:20.354Z,1012.3
2018-07-31T01:52:00.946Z,1012.26
2018-07-31T01:52:41.524Z,1012.27
2018-07-31T01:53:22.091Z,1012.23
2018-07-31T01:54:02.654Z,1012.23
2018-07-31T01:54:43.240Z,1012.24
2018-07-31T01:55:23.839Z,1012.23
2018-07-31T01:56:04.412Z,1012.25
2018-07-31T01:56:44.979Z,1012.22
2018-07-31T01:57:25.567Z,1012.23
2018-07-31T01:58:06.127Z,1012.21
2018-07-31T01:58:46.690Z,1012.21
2018-07-31T01:59:27.298Z,1012.2
2018-07-31T02:00:07.869Z,1012.17
2018-07-31T02:00:48.442Z,1012.22
2018-07-31T02:01:29.016Z,1012.21
2018-07-31T02:02:09.593Z,1012.2
2018-07-31T02:02:50.197Z,1012.19
2018-07-31T02:03:30.804Z,1012.19
2018-07-31T02:04:11.470Z,1012.2
2018-07-31T02:04:52.046Z,1012.19
2018-07-31T02:05:32.620Z,1012.19
2018-07-31T02:06:13.190Z,1012.15
2018-07-31T02:06:53.740Z,1012.19
2018-07-31T02:07:34.341Z,1012.16
2018-07-31T02:08:14.880Z,1012.15
2018-07-31T02:08:55.455Z,1012.11
2018-07-31T02:09:36.013Z,1012.11
2018-07-31T02:10:16.599Z,1012.12
2018-07-31T02:10:57.153Z,1012.12
2018-07-31T02:11:37.719Z,1012.12
2018-07-31T02:12:18.430Z,1012.1
2018-07-31T02:12:59.023Z,1012.11
2018-07-31T02:13:39.619Z,1012.06
2018-07-31T02:14:20.208Z,1012.07
2018-07-31T02:15:00.782Z,1012.07
2018-07-31T02:15:41.360Z,1012.05
2018-07-31T02:16:21.935Z,1012.01
2018-07-31T02:17:02.506Z,1012.02
2018-07-31T02:17:43.077Z,1012.02
2018-07-31T02:18:23.678Z,1012
2018-07-31T02:19:04.254Z,1011.98
2018-07-31T02:19:44.879Z,1011.98
2018-07-31T02:20:25.426Z,1012.01
2018-07-31T02:21:05.999Z,1011.98
2018-07-31T02:21:46.548Z,1011.98
2018-07-31T02:22:27.118Z,1011.96
2018-07-31T02:23:07.695Z,1011.94
2018-07-31T02:23:48.240Z,1011.97
2018-07-31T02:24:28.822Z,1011.94
2018-07-31T02:25:09.386Z,1011.95
2018-07-31T02:25:50.000Z,1011.93
2018-07-31T02:26:30.586Z,1011.93
2018-07-31T02:27:11.145Z,1011.9
2018-07-31T02:27:51.727Z,1011.92
2018-07-31T02:28:32.333Z,1011.91
2018-07-31T02:29:12.835Z,1011.97
2018-07-31T02:29:53.469Z,1011.97
2018-07-31T02:30:34.031Z,1011.96
2018-07-31T02:31:14.693Z,1011.94
2018-07-31T02:31:55.240Z,1011.9
2018-07-31T02:32:35.795Z,1011.94
2018-07-31T02:33:16.348Z,1011.9
2018-07-31T02:33:56.917Z,1011.92
2018-07-31T02:34:37.528Z,1011.9
2018-07-31T02:35:18.091Z,1011.89
2018-07-31T02:35:58.658Z,1011.93
2018-07-31T02:36:39.224Z,1011.92
2018-07-31T02:37:19.867Z,1011.92
2018-07-31T02:38:00.397Z,1011.9
2018-07-31T02:38:40.957Z,1011.96
2018-07-31T02:39:21.550Z,1011.92
2018-07-31T02:40:02.116Z,1011.92
2018-07-31T02:40:42.686Z,1011.89
2018-07-31T02:41:23.347Z,1011.92
2018-07-31T02:42:03.903Z,1011.89
2018-07-31T02:42:44.560Z,1011.88
2018-07-31T02:43:25.134Z,1011.92
2018-07-31T02:44:05.708Z,1011.91
2018-07-31T02:44:46.299Z,1011.9
2018-07-31T02:45:26.860Z,1011.9
2018-07-31T02:46:07.429Z,1011.92
2018-07-31T02:46:48.078Z,1011.95
2018-07-31T02:47:28.620Z,1011.92
2018-07-31T02:48:09.184Z,1011.93
2018-07-31T02:48:49.761Z,1012.01
2018-07-31T02:49:30.326Z,1011.96
2018-07-31T02:50:10.897Z,1011.92
2018-07-31T02:50:51.466Z,1011.93
2018-07-31T02:51:32.038Z,1011.95
2018-07-31T02:52:12.596Z,1011.94
2018-07-31T02:52:53.174Z,1011.97
2018-07-31T02:53:33.755Z,1011.96
2018-07-31T02:54:14.313Z,1011.98
2018-07-31T02:54:54.871Z,1011.95
2018-07-31T02:55:35.434Z,1011.99
2018-07-31T02:56:15.995Z,1011.97
2018-07-31T02:56:56.551Z,1011.96
2018-07-31T02:57:37.110Z,1011.97
2018-07-31T02:58:17.737Z,1011.97
2018-07-31T02:58:58.267Z,1011.99
2018-07-31T02:59:38.824Z,1011.95
2018-07-31T03:00:19.407Z,1012
2018-07-31T03:00:59.986Z,1011.96
2018-07-31T03:01:40.558Z,1012.01
2018-07-31T03:02:21.118Z,1011.98
2018-07-31T03:03:01.692Z,1011.99
2018-07-31T03:03:42.259Z,1012.01
2018-07-31T03:04:22.821Z,1011.99
2018-07-31T03:05:03.388Z,1011.99
2018-07-31T03:05:43.971Z,1012.03
2018-07-31T03:06:24.535Z,1012.03
2018-07-31T03:07:05.103Z,1012.06
2018-07-31T03:07:45.649Z,1012.05
2018-07-31T03:08:26.227Z,1012.07
2018-07-31T03:09:06.798Z,1012.02
2018-07-31T03:09:47.368Z,1012.05
2018-07-31T03:10:27.951Z,1012.03
2018-07-31T03:11:08.513Z,1012.05
2018-07-31T03:11:49.074Z,1012.04
2018-07-31T03:12:29.677Z,1012.08
2018-07-31T03:13:10.249Z,1012.08
2018-07-31T03:13:50.864Z,1012.06
2018-07-31T03:14:31.451Z,1012.04
2018-07-31T03:15:12.013Z,1012.08
2018-07-31T03:15:52.584Z,1012.09
2018-07-31T03:16:33.177Z,1012.1
2018-07-31T03:17:13.734Z,1012.09
2018-07-31T03:17:54.293Z,1012.08
2018-07-31T03:18:34.868Z,1012.09
2018-07-31T03:19:15.492Z,1012.1
2018-07-31T03:19:56.045Z,1012.07
2018-07-31T03:20:36.610Z,1012.07
2018-07-31T03:21:17.181Z,1012.08
2018-07-31T03:21:57.739Z,1012.05
2018-07-31T03:22:38.308Z,1012.08
2018-07-31T03:23:18.896Z,1012.07
2018-07-31T03:23:59.453Z,1012.07
2018-07-31T03:24:40.035Z,1012.09
2018-07-31T03:25:20.596Z,1012.1
2018-07-31T03:26:01.164Z,1012.07
2018-07-31T03:26:41.738Z,1012.06
2018-07-31T03:27:22.315Z,1012.08
2018-07-31T03:28:02.915Z,1012.03
2018-07-31T03:28:43.462Z,1012.01
2018-07-31T03:29:24.028Z,1012.05
2018-07-31T03:30:04.593Z,1012.03
2018-07-31T03:30:45.158Z,1012.04
2018-07-31T03:31:25.727Z,1012.02
2018-07-31T03:32:06.288Z,1011.98
2018-07-31T03:32:46.857Z,1011.99
2018-07-31T03:33:27.421Z,1012
2018-07-31T03:34:07.994Z,1011.96
2018-07-31T03:34:48.570Z,1011.99
2018-07-31T03:35:29.142Z,1011.96
2018-07-31T03:36:09.707Z,1011.95
2018-07-31T03:36:50.301Z,1012
2018-07-31T03:37:30.869Z,1012.02
2018-07-31T03:38:11.445Z,1012
2018-07-31T03:38:52.018Z,1012.01
2018-07-31T03:39:32.609Z,1012.03
2018-07-31T03:40:13.184Z,1012.1
2018-07-31T03:40:53.761Z,1012.04
2018-07-31T03:41:34.357Z,1012.07
2018-07-31T03:42:14.904Z,1012.09
2018-07-31T03:42:55.472Z,1012.09
2018-07-31T03:43:36.045Z,1012.1
2018-07-31T03:44:16.615Z,1012.09
2018-07-31T03:44:57.193Z,1012.09
2018-07-31T03:45:37.792Z,1012.09
2018-07-31T03:46:18.362Z,1012.12
2018-07-31T03:46:58.936Z,1012.12
2018-07-31T03:47:39.509Z,1012.16
2018-07-31T03:48:20.081Z,1012.14
2018-07-31T03:49:00.652Z,1012.14
2018-07-31T03:49:41.226Z,1012.17
2018-07-31T03:50:21.803Z,1012.12
2018-07-31T03:51:02.374Z,1012.14
2018-07-31T03:51:42.946Z,1012.13
2018-07-31T03:52:23.546Z,1012.16
2018-07-31T03:53:04.099Z,1012.13
2018-07-31T03:53:44.676Z,1012.15
2018-07-31T03:54:25.251Z,1012.17
2018-07-31T03:55:05.815Z,1012.17
2018-07-31T03:55:46.376Z,1012.12
2018-07-31T03:56:26.988Z,1012.14
2018-07-31T03:57:07.523Z,1012.14
2018-07-31T03:57:48.095Z,1012.12
2018-07-31T03:58:28.668Z,1012.13
2018-07-31T03:59:09.258Z,1012.13
2018-07-31T03:59:49.833Z,1012.12
2018-07-31T04:00:30.403Z,1012.12
2018-07-31T04:01:10.974Z,1012.08
2018-07-31T04:01:51.545Z,1012.08
2018-07-31T04:02:32.110Z,1012.07
2018-07-31T04:03:12.700Z,1012.04
2018-07-31T04:03:53.287Z,1012.09
2018-07-31T04:04:33.863Z,1012.1
2018-07-31T04:05:14.413Z,1012.1
2018-07-31T04:05:54.984Z,1012.1
2018-07-31T04:06:35.550Z,1012.09
2018-07-31T04:07:16.119Z,1012.14
2018-07-31T04:07:56.699Z,1012.14
2018-07-31T04:08:37.263Z,1012.13
2018-07-31T04:09:17.810Z,1012.16
2018-07-31T04:09:58.394Z,1012.17
2018-07-31T04:10:38.984Z,1012.14
2018-07-31T04:11:19.550Z,1012.15
2018-07-31T04:12:00.127Z,1012.14
2018-07-31T04:12:40.732Z,1012.14
2018-07-31T04:13:21.306Z,1012.18
2018-07-31T04:14:01.883Z,1012.15
2018-07-31T04:14:42.448Z,1012.16
2018-07-31T04:15:23.036Z,1012.15
2018-07-31T04:16:03.625Z,1012.16
2018-07-31T04:16:44.211Z,1012.12
2018-07-31T04:17:24.776Z,1012.15
2018-07-31T04:18:05.325Z,1012.15
2018-07-31T04:18:45.946Z,1012.11
2018-07-31T04:19:26.485Z,1012.09
2018-07-31T04:20:07.060Z,1012.11
2018-07-31T04:20:47.628Z,1012.14
2018-07-31T04:21:28.218Z,1012.1
2018-07-31T04:22:08.806Z,1012.14
2018-07-31T04:22:49.384Z,1012.14
2018-07-31T04:23:29.955Z,1012.16
2018-07-31T04:24:10.524Z,1012.16
2018-07-31T04:24:51.149Z,1012.17
2018-07-31T04:25:31.683Z,1012.19
2018-07-31T04:26:12.255Z,1012.17
2018-07-31T04:26:52.835Z,1012.14
2018-07-31T04:27:33.409Z,1012.15
2018-07-31T04:28:14.011Z,1012.14
2018-07-31T04:28:54.588Z,1012.17
2018-07-31T04:29:35.157Z,1012.14
2018-07-31T04:30:15.800Z,1012.12
2018-07-31T04:30:56.348Z,1012.14
2018-07-31T04:31:36.918Z,1012.15
2018-07-31T04:32:17.497Z,1012.14
2018-07-31T04:32:58.063Z,1012.12
2018-07-31T04:33:38.640Z,1012.15
2018-07-31T04:34:19.200Z,1012.14
2018-07-31T04:34:59.769Z,1012.15
2018-07-31T04:35:40.332Z,1012.13
2018-07-31T04:36:20.872Z,1012.14
2018-07-31T04:37:01.452Z,1012.17
2018-07-31T04:37:42.017Z,1012.14
2018-07-31T04:38:22.576Z,1012.14
2018-07-31T04:39:03.211Z,1012.11
2018-07-31T04:39:43.780Z,1012.16
2018-07-31T04:40:24.330Z,1012.14
2018-07-31T04:41:04.923Z,1012.14
2018-07-31T04:41:45.463Z,1012.17
2018-07-31T04:42:26.079Z,1012.14
2018-07-31T04:43:06.607Z,1012.16
2018-07-31T04:43:47.299Z,1012.16
2018-07-31T04:44:27.895Z,1012.11
2018-07-31T04:45:08.447Z,1012.16
2018-07-31T04:45:49.011Z,1012.13
2018-07-31T04:46:29.568Z,1012.1
2018-07-31T04:47:10.128Z,1012.11
2018-07-31T04:47:50.725Z,1012.1
2018-07-31T04:48:31.269Z,1012.08
2018-07-31T04:49:11.844Z,1012.07
2018-07-31T04:49:52.417Z,1012.07
2018-07-31T04:50:33.039Z,1012.07
2018-07-31T04:51:13.598Z,1012.08
2018-07-31T04:51:54.163Z,1012.07
2018-07-31T04:52:34.757Z,1012.05
2018-07-31T04:53:15.304Z,1012.02
2018-07-31T04:53:55.942Z,1012.04
2018-07-31T04:54:36.507Z,1012.04
2018-07-31T04:55:17.082Z,1012.06
2018-07-31T04:55:57.660Z,1012.04
2018-07-31T04:56:38.285Z,1012.03
2018-07-31T04:57:18.814Z,1012.05
2018-07-31T04:57:59.404Z,1012.05
2018-07-31T04:58:39.940Z,1012.04
2018-07-31T04:59:20.493Z,1012.01
2018-07-31T05:00:01.070Z,1012.02
2018-07-31T05:00:41.616Z,1012
2018-07-31T05:01:22.206Z,1012.06
2018-07-31T05:02:02.768Z,1012.01
2018-07-31T05:02:43.335Z,1012.01
2018-07-31T05:03:23.926Z,1012
2018-07-31T05:04:04.514Z,1012.02
2018-07-31T05:04:45.063Z,1012.03
2018-07-31T05:05:25.633Z,1012.01
2018-07-31T05:06:06.188Z,1012.03
2018-07-31T05:06:46.778Z,1012.02
2018-07-31T05:07:27.352Z,1012.02
2018-07-31T05:08:07.927Z,1012.04
2018-07-31T05:08:48.493Z,1012.04
2018-07-31T05:09:29.052Z,1012.03
2018-07-31T05:10:09.638Z,1012.04
2018-07-31T05:10:50.207Z,1012.03
2018-07-31T05:11:30.783Z,1012.03
2018-07-31T05:12:11.361Z,1012.05
2018-07-31T05:12:51.949Z,1012.04
2018-07-31T05:13:32.524Z,1012.02
2018-07-31T05:14:13.080Z,1012.02
2018-07-31T05:14:53.661Z,1012.02
2018-07-31T05:15:34.222Z,1012.01
2018-07-31T05:16:14.795Z,1012.01
2018-07-31T05:16:55.357Z,1012.02
2018-07-31T05:17:35.956Z,1012
2018-07-31T05:18:16.563Z,1012.04
2018-07-31T05:18:57.056Z,1011.99
2018-07-31T05:19:37.628Z,1012.01
2018-07-31T05:20:18.203Z,1012
2018-07-31T05:20:58.826Z,1012.02
2018-07-31T05:21:39.388Z,1012.03
2018-07-31T05:22:19.962Z,1012.05
2018-07-31T05:23:00.539Z,1012.04
2018-07-31T05:23:41.107Z,1012.03
2018-07-31T05:24:21.668Z,1012.03
2018-07-31T05:25:02.217Z,1012.02
2018-07-31T05:25:42.810Z,1012.04
2018-07-31T05:26:23.395Z,1012.02
2018-07-31T05:27:03.972Z,1012.05
2018-07-31T05:27:44.532Z,1012.01
2018-07-31T05:28:25.084Z,1012.05
2018-07-31T05:29:05.649Z,1012.05
2018-07-31T05:29:46.212Z,1012.07
2018-07-31T05:30:26.789Z,1012.07
2018-07-31T05:31:07.355Z,1012.04
2018-07-31T05:31:47.922Z,1012.05
2018-07-31T05:32:28.488Z,1012.06
2018-07-31T05:33:09.065Z,1012.02
2018-07-31T05:33:49.658Z,1012.04
2018-07-31T05:34:30.205Z,1012.09
2018-07-31T05:35:10.774Z,1012.03
2018-07-31T05:35:51.345Z,1012.01
2018-07-31T05:36:31.917Z,1012
2018-07-31T05:37:12.473Z,1011.99
2018-07-31T05:37:53.050Z,1012.03
2018-07-31T05:38:33.612Z,1012.03
2018-07-31T05:39:14.177Z,1012.02
2018-07-31T05:39:54.741Z,1012.03
2018-07-31T05:40:35.312Z,1012.03
2018-07-31T05:41:15.881Z,1012.03
2018-07-31T05:41:56.445Z,1012.05
2018-07-31T05:42:37.023Z,1012.14
2018-07-31T05:43:17.630Z,1012.31
2018-07-31T05:43:58.164Z,1012.38
2018-07-31T05:44:38.738Z,1012.35
2018-07-31T05:45:19.315Z,1012.37
2018-07-31T05:45:59.877Z,1012.4
2018-07-31T05:46:40.451Z,1012.38
2018-07-31T05:47:21.011Z,1012.41
2018-07-31T05:48:01.594Z,1012.42
2018-07-31T05:48:42.167Z,1012.45
2018-07-31T05:49:22.742Z,1012.53
2018-07-31T05:50:03.317Z,1012.52
2018-07-31T05:50:43.887Z,1012.57
2018-07-31T05:51:24.448Z,1012.56
2018-07-31T05:52:05.019Z,1012.57
2018-07-31T05:52:45.588Z,1012.64
2018-07-31T05:53:26.178Z,1012.6
2018-07-31T05:54:06.748Z,1012.65
2018-07-31T05:54:47.324Z,1012.63
2018-07-31T05:55:27.903Z,1012.65
2018-07-31T05:56:08.482Z,1012.61
2018-07-31T05:56:49.059Z,1012.63
2018-07-31T05:57:29.719Z,1012.6
2018-07-31T05:58:10.229Z,1012.68
2018-07-31T05:58:50.788Z,1012.69
2018-07-31T05:59:31.366Z,1012.64
2018-07-31T06:00:11.926Z,1012.62
2018-07-31T06:00:52.497Z,1012.7
2018-07-31T06:01:33.074Z,1012.74
2018-07-31T06:02:13.631Z,1012.73
2018-07-31T06:02:54.217Z,1012.75
2018-07-31T06:03:34.847Z,1012.82
2018-07-31T06:04:15.381Z,1012.8
2018-07-31T06:04:55.936Z,1012.82
2018-07-31T06:05:36.520Z,1012.8
2018-07-31T06:06:17.096Z,1012.79
2018-07-31T06:06:57.670Z,1012.87
2018-07-31T06:07:38.248Z,1012.87
2018-07-31T06:08:18.833Z,1012.94
2018-07-31T06:08:59.407Z,1012.98
2018-07-31T06:09:40.109Z,1013.02
2018-07-31T06:10:20.574Z,1013.02
2018-07-31T06:11:01.155Z,1013.07
2018-07-31T06:11:41.812Z,1013.13
2018-07-31T06:12:22.398Z,1013.13
2018-07-31T06:13:02.984Z,1013.18
2018-07-31T06:13:43.559Z,1013.22
2018-07-31T06:14:24.138Z,1013.27
2018-07-31T06:15:04.706Z,1013.29
2018-07-31T06:15:45.287Z,1013.23
2018-07-31T06:16:25.862Z,1013.19
2018-07-31T06:17:06.443Z,1013.09
2018-07-31T06:17:47.024Z,1012.84
2018-07-31T06:18:27.603Z,1012.58
2018-07-31T06:19:08.175Z,1012.48
2018-07-31T06:19:48.766Z,1012.42
2018-07-31T06:20:29.371Z,1012.39
2018-07-31T06:21:09.990Z,1012.43
2018-07-31T06:21:50.589Z,1012.42
2018-07-31T06:22:31.169Z,1012.39
2018-07-31T06:23:11.781Z,1012.44
2018-07-31T06:23:52.431Z,1012.41
2018-07-31T06:24:33.011Z,1012.4
2018-07-31T06:25:13.608Z,1012.41
2018-07-31T06:25:54.160Z,1012.44
2018-07-31T06:26:34.736Z,1012.42
2018-07-31T06:27:15.310Z,1012.45
2018-07-31T06:27:55.896Z,1012.47
2018-07-31T06:28:36.480Z,1012.47
2018-07-31T06:29:17.049Z,1012.52
2018-07-31T06:29:57.622Z,1012.65
2018-07-31T06:30:38.201Z,1012.72
2018-07-31T06:31:18.775Z,1012.76
2018-07-31T06:31:59.400Z,1012.73
2018-07-31T06:32:39.974Z,1012.68
2018-07-31T06:33:20.557Z,1012.63
2018-07-31T06:34:01.144Z,1012.61
2018-07-31T06:34:41.733Z,1012.66
2018-07-31T06:35:22.310Z,1012.79
2018-07-31T06:36:02.895Z,1012.74
2018-07-31T06:36:43.478Z,1012.57
2018-07-31T06:37:24.062Z,1012.51
2018-07-31T06:38:04.650Z,1012.51
2018-07-31T06:38:45.224Z,1012.49
2018-07-31T06:39:25.809Z,1012.51
2018-07-31T06:40:06.390Z,1012.5
2018-07-31T06:40:46.980Z,1012.5
2018-07-31T06:41:27.549Z,1012.5
2018-07-31T06:42:08.124Z,1012.49
2018-07-31T06:42:48.722Z,1012.46
2018-07-31T06:43:29.349Z,1012.46
2018-07-31T06:44:09.888Z,1012.48
2018-07-31T06:44:50.444Z,1012.45
2018-07-31T06:45:31.030Z,1012.48
2018-07-31T06:46:11.603Z,1012.46
2018-07-31T06:46:52.187Z,1012.46
2018-07-31T06:47:32.758Z,1012.51
2018-07-31T06:48:13.364Z,1012.46
2018-07-31T06:48:53.941Z,1012.51
2018-07-31T06:49:34.527Z,1012.49
2018-07-31T06:50:15.121Z,1012.5
2018-07-31T06:50:55.742Z,1012.52
2018-07-31T06:51:36.310Z,1012.49
2018-07-31T06:52:16.882Z,1012.48
2018-07-31T06:52:57.469Z,1012.5
2018-07-31T06:53:38.049Z,1012.52
2018-07-31T06:54:18.630Z,1012.48
2018-07-31T06:54:59.208Z,1012.52
2018-07-31T06:55:39.779Z,1012.49
2018-07-31T06:56:20.335Z,1012.52
2018-07-31T06:58:48.429Z,1012.53
2018-07-31T06:59:28.998Z,1012.54
2018-07-31T07:00:09.589Z,1012.54
2018-07-31T07:00:50.170Z,1012.51
2018-07-31T07:01:30.743Z,1012.52
2018-07-31T07:02:11.364Z,1012.49
2018-07-31T07:02:51.898Z,1012.5
2018-07-31T07:03:32.467Z,1012.51
2018-07-31T07:04:13.035Z,1012.53
2018-07-31T07:04:53.626Z,1012.52
2018-07-31T07:05:34.204Z,1012.48
2018-07-31T07:06:14.793Z,1012.49
2018-07-31T07:06:55.370Z,1012.5
2018-07-31T07:07:35.948Z,1012.49
2018-07-31T07:08:16.511Z,1012.53
2018-07-31T07:08:57.087Z,1012.52
2018-07-31T07:09:37.682Z,1012.54
2018-07-31T07:10:18.255Z,1012.54
2018-07-31T07:10:58.846Z,1012.49
2018-07-31T07:11:39.428Z,1012.51
2018-07-31T07:12:20.008Z,1012.52
2018-07-31T07:13:00.600Z,1012.53
2018-07-31T07:13:41.167Z,1012.59
2018-07-31T07:14:21.750Z,1012.53
2018-07-31T07:15:02.327Z,1012.53
2018-07-31T07:15:42.906Z,1012.5
2018-07-31T07:16:23.490Z,1012.51
2018-07-31T07:17:04.086Z,1012.52
2018-07-31T07:17:44.640Z,1012.56
2018-07-31T07:18:25.252Z,1012.57
2018-07-31T07:19:05.808Z,1012.54
2018-07-31T07:19:46.388Z,1012.56
2018-07-31T07:20:26.971Z,1012.55
2018-07-31T07:21:07.551Z,1012.55
2018-07-31T07:21:48.133Z,1012.55
2018-07-31T07:22:28.785Z,1012.54
2018-07-31T07:23:09.336Z,1012.54
2018-07-31T07:23:49.918Z,1012.56
2018-07-31T07:24:30.487Z,1012.54
2018-07-31T07:25:11.067Z,1012.54
2018-07-31T07:25:51.638Z,1012.58
2018-07-31T07:26:32.225Z,1012.57
2018-07-31T07:27:12.820Z,1012.54
2018-07-31T07:27:53.434Z,1012.54
2018-07-31T07:28:33.990Z,1012.54
2018-07-31T07:29:14.565Z,1012.57
2018-07-31T07:29:55.128Z,1012.6
2018-07-31T07:30:35.878Z,1012.55
2018-07-31T07:31:16.458Z,1012.54
2018-07-31T07:31:57.034Z,1012.54
2018-07-31T07:32:37.646Z,1012.56
2018-07-31T07:33:18.168Z,1012.53
2018-07-31T07:33:58.893Z,1012.59
2018-07-31T07:34:39.323Z,1012.57
2018-07-31T07:35:19.907Z,1012.51
2018-07-31T07:36:00.515Z,1012.54
2018-07-31T07:36:41.089Z,1012.51
2018-07-31T07:37:21.662Z,1012.56
2018-07-31T07:38:02.235Z,1012.51
2018-07-31T07:38:42.822Z,1012.53
2018-07-31T07:39:23.403Z,1012.52
2018-07-31T07:40:04.102Z,1012.5
2018-07-31T07:40:44.799Z,1012.52
2018-07-31T07:41:25.358Z,1012.54
2018-07-31T07:42:05.929Z,1012.54
2018-07-31T07:42:46.511Z,1012.56
2018-07-31T07:43:27.115Z,1012.5
2018-07-31T07:44:07.700Z,1012.55
2018-07-31T07:44:48.308Z,1012.53
2018-07-31T07:45:28.891Z,1012.55
2018-07-31T07:46:09.476Z,1012.55
2018-07-31T07:46:50.060Z,1012.5
2018-07-31T07:47:30.638Z,1012.56
2018-07-31T07:48:11.213Z,1012.5
2018-07-31T07:48:51.865Z,1012.52
2018-07-31T07:49:32.545Z,1012.52
2018-07-31T07:50:13.037Z,1012.54
2018-07-31T07:50:53.651Z,1012.54
2018-07-31T07:51:34.243Z,1012.54
2018-07-31T07:52:14.841Z,1012.56
2018-07-31T07:52:55.417Z,1012.58
2018-07-31T07:53:35.994Z,1012.57
2018-07-31T07:54:16.642Z,1012.55
2018-07-31T07:54:57.212Z,1012.52
2018-07-31T07:55:37.806Z,1012.53
2018-07-31T07:56:18.387Z,1012.55
2018-07-31T07:56:58.982Z,1012.57
2018-07-31T07:57:39.546Z,1012.56
2018-07-31T07:58:20.130Z,1012.59
2018-07-31T07:59:00.699Z,1012.61
2018-07-31T07:59:41.259Z,1012.56
2018-07-31T08:00:21.833Z,1012.55
2018-07-31T08:01:02.443Z,1012.6
2018-07-31T08:01:43.026Z,1012.62
2018-07-31T08:02:23.605Z,1012.64
2018-07-31T08:03:04.233Z,1012.61
2018-07-31T08:03:44.822Z,1012.63
2018-07-31T08:04:25.364Z,1012.63
2018-07-31T08:05:05.938Z,1012.63
2018-07-31T08:05:46.516Z,1012.62
2018-07-31T08:06:27.089Z,1012.6
2018-07-31T08:07:07.693Z,1012.57
2018-07-31T08:07:48.280Z,1012.58
2018-07-31T08:08:28.830Z,1012.58
2018-07-31T08:09:09.414Z,1012.52
2018-07-31T08:09:50.019Z,1012.53
2018-07-31T08:10:30.560Z,1012.52
2018-07-31T08:11:11.151Z,1012.57
2018-07-31T08:11:51.833Z,1012.57
2018-07-31T08:12:32.398Z,1012.55
2018-07-31T08:13:12.986Z,1012.55
2018-07-31T08:13:53.590Z,1012.53
2018-07-31T08:14:34.153Z,1012.5